Time;durP1;ratioP1;P1;durP2;ratioP2;P2;SDS_P1;SDS_P2;PMS_P1;PMS_P2;Temp;Humidity;BMP_temperature;BMP_pressure;BME280_temperature;BME280_humidity;BME280_pressure;Samples;Min_cycle;Max_cycle;Signal;HPM_P1;HPM_P2
2023/04/18 00:00:42;;;;;;;1.75;1.23;;;;;;;;;;4949851;28;20539;-41
2023/04/18 00:03:08;;;;;;;1.95;1.27;;;;;;;;;;4948876;28;20133;-43
2023/04/18 00:05:35;;;;;;;0.93;0.93;;;;;;;;;;4947156;28;20058;-42
2023/04/18 00:08:01;;;;;;;3.50;1.20;;;;;;;;;;4949333;28;20035;-43
2023/04/18 00:10:26;;;;;;;3.08;1.30;;;;;;;;;;4947857;28;20507;-43
2023/04/18 00:12:51;;;;;;;1.40;1.30;;;;;;;;;;4948874;28;20059;-41
2023/04/18 00:15:17;;;;;;;1.35;1.10;;;;;;;;;;4949508;28;20038;-40
2023/04/18 00:17:42;;;;;;;1.30;1.20;;;;;;;;;;4949626;28;20027;-41
2023/04/18 00:20:10;;;;;;;1.30;1.20;;;;;;;;;;4946915;28;20031;-42
2023/04/18 00:22:41;;;;;;;1.00;1.00;;;;;;;;;;4948045;28;20035;-41
2023/04/18 00:25:07;;;;;;;2.67;1.25;;;;;;;;;;4949935;28;20074;-40
2023/04/18 00:27:33;;;;;;;3.45;1.65;;;;;;;;;;4965330;28;20038;-51
2023/04/18 00:29:58;;;;;;;0.95;0.90;;;;;;;;;;4964337;28;20535;-42
2023/04/18 00:32:23;;;;;;;1.48;1.23;;;;;;;;;;4961193;28;20039;-40
2023/04/18 00:34:49;;;;;;;1.10;0.90;;;;;;;;;;4964850;28;20043;-41
2023/04/18 00:37:14;;;;;;;1.67;1.20;;;;;;;;;;4963096;28;20126;-41
2023/04/18 00:39:39;;;;;;;1.33;1.23;;;;;;;;;;4966335;28;20049;-44
2023/04/18 00:42:05;;;;;;;1.65;1.00;;;;;;;;;;4963650;28;20091;-40
2023/04/18 00:44:31;;;;;;;2.38;1.13;;;;;;;;;;4965350;28;20029;-42
2023/04/18 00:46:56;;;;;;;1.73;1.17;;;;;;;;;;4962527;28;20050;-49
2023/04/18 00:49:23;;;;;;;2.05;1.30;;;;;;;;;;4959962;28;20054;-50
2023/04/18 00:51:49;;;;;;;1.58;1.17;;;;;;;;;;4963999;28;20035;-44
2023/04/18 00:54:17;;;;;;;1.70;1.30;;;;;;;;;;4967931;28;20418;-42
2023/04/18 00:56:43;;;;;;;0.95;0.88;;;;;;;;;;4965974;28;20089;-42
2023/04/18 00:59:09;;;;;;;1.10;1.10;;;;;;;;;;4969220;28;20023;-42
2023/04/18 01:01:36;;;;;;;2.08;1.50;;;;;;;;;;4970642;28;20045;-45
2023/04/18 01:04:01;;;;;;;2.92;1.30;;;;;;;;;;4964384;28;20127;-43
2023/04/18 01:06:28;;;;;;;0.85;0.85;;;;;;;;;;4968197;28;20555;-43
2023/04/18 01:08:55;;;;;;;2.20;1.20;;;;;;;;;;4968626;28;20042;-43
2023/04/18 01:11:20;;;;;;;1.02;1.02;;;;;;;;;;4966161;28;20436;-46
2023/04/18 01:14:03;;;;;;;1.30;1.20;;;;;;;;;;4968326;28;20026;-45
2023/04/18 01:16:31;;;;;;;2.00;1.40;;;;;;;;;;4967002;28;20046;-44
2023/04/18 01:18:57;;;;;;;1.00;1.00;;;;;;;;;;4964136;28;20062;-41
2023/04/18 01:21:23;;;;;;;1.40;1.30;;;;;;;;;;4962922;28;20198;-47
2023/04/18 01:23:49;;;;;;;1.15;1.10;;;;;;;;;;4966379;28;20110;-43
2023/04/18 01:26:15;;;;;;;1.48;1.10;;;;;;;;;;4967293;28;20058;-40
2023/04/18 01:28:40;;;;;;;1.60;1.50;;;;;;;;;;4966677;28;20372;-50
2023/04/18 01:31:05;;;;;;;1.52;1.05;;;;;;;;;;4969876;28;20034;-43
2023/04/18 01:33:31;;;;;;;1.15;1.15;;;;;;;;;;4966259;28;20019;-44
2023/04/18 01:35:56;;;;;;;1.35;1.25;;;;;;;;;;4966136;28;20044;-43
2023/04/18 01:38:21;;;;;;;1.60;1.50;;;;;;;;;;4967978;28;20046;-46
2023/04/18 01:40:47;;;;;;;1.40;1.30;;;;;;;;;;4965270;28;20067;-41
2023/04/18 01:43:13;;;;;;;1.55;1.30;;;;;;;;;;4965427;28;20094;-47
2023/04/18 01:45:38;;;;;;;2.50;1.23;;;;;;;;;;4967037;28;20051;-43
2023/04/18 01:48:04;;;;;;;1.00;1.00;;;;;;;;;;4964742;28;20035;-41
2023/04/18 01:50:29;;;;;;;2.22;1.48;;;;;;;;;;4961429;28;20121;-45
2023/04/18 01:52:55;;;;;;;1.73;1.33;;;;;;;;;;4963705;28;20030;-44
2023/04/18 01:55:20;;;;;;;1.88;1.58;;;;;;;;;;4963220;28;20161;-43
2023/04/18 01:57:46;;;;;;;1.55;1.08;;;;;;;;;;4950352;28;20031;-45
2023/04/18 02:00:11;;;;;;;1.35;1.25;;;;;;;;;;4952734;28;20117;-45
2023/04/18 02:02:37;;;;;;;1.30;1.20;;;;;;;;;;4949710;28;20485;-41
2023/04/18 02:05:02;;;;;;;1.13;1.02;;;;;;;;;;4949977;28;20119;-42
2023/04/18 02:07:28;;;;;;;1.23;1.13;;;;;;;;;;4948608;28;20389;-45
2023/04/18 02:09:53;;;;;;;3.38;1.30;;;;;;;;;;4951631;28;20027;-45
2023/04/18 02:12:19;;;;;;;1.23;1.13;;;;;;;;;;4966788;28;20502;-44
2023/04/18 02:14:50;;;;;;;3.08;1.10;;;;;;;;;;4966227;28;20057;-48
2023/04/18 02:17:15;;;;;;;1.52;1.23;;;;;;;;;;4965842;28;20492;-43
2023/04/18 02:19:41;;;;;;;1.23;1.10;;;;;;;;;;4968383;28;20042;-46
2023/04/18 02:22:06;;;;;;;2.55;1.00;;;;;;;;;;4964002;28;20050;-45
2023/04/18 02:24:32;;;;;;;3.78;1.48;;;;;;;;;;4965420;28;20507;-46
2023/04/18 02:26:57;;;;;;;1.10;1.10;;;;;;;;;;4963708;28;20047;-41
2023/04/18 02:29:23;;;;;;;1.60;1.10;;;;;;;;;;4965881;28;20031;-41
2023/04/18 02:31:48;;;;;;;1.30;1.20;;;;;;;;;;4968402;28;20051;-41
2023/04/18 02:34:13;;;;;;;1.65;1.35;;;;;;;;;;4965041;28;20026;-42
2023/04/18 02:36:39;;;;;;;1.30;1.20;;;;;;;;;;4960884;28;20035;-44
2023/04/18 02:39:05;;;;;;;1.55;1.30;;;;;;;;;;4965057;28;20050;-41
2023/04/18 02:41:30;;;;;;;1.00;1.00;;;;;;;;;;4968892;28;20117;-41
2023/04/18 02:43:55;;;;;;;3.50;1.13;;;;;;;;;;4967410;28;20533;-42
2023/04/18 02:46:21;;;;;;;1.40;1.30;;;;;;;;;;4968805;28;20039;-45
2023/04/18 02:48:46;;;;;;;1.30;1.20;;;;;;;;;;4967042;28;20019;-41
2023/04/18 02:51:11;;;;;;;2.13;1.00;;;;;;;;;;4965185;28;20070;-41
2023/04/18 02:53:37;;;;;;;1.67;1.25;;;;;;;;;;4967545;28;20018;-41
2023/04/18 02:56:03;;;;;;;1.13;1.13;;;;;;;;;;4966833;28;20374;-42
2023/04/18 02:58:28;;;;;;;1.52;1.40;;;;;;;;;;4966548;28;20043;-41
2023/04/18 03:00:55;;;;;;;0.90;0.90;;;;;;;;;;4960414;28;20122;-44
2023/04/18 03:03:21;;;;;;;1.38;1.27;;;;;;;;;;4967399;28;20035;-41
2023/04/18 03:05:46;;;;;;;1.20;1.10;;;;;;;;;;4967375;28;20047;-44
2023/04/18 03:08:12;;;;;;;1.40;1.20;;;;;;;;;;4964472;28;20065;-44
2023/04/18 03:10:38;;;;;;;1.33;1.23;;;;;;;;;;4967939;28;20097;-47
2023/04/18 03:13:03;;;;;;;1.25;1.15;;;;;;;;;;4965249;28;20081;-47
2023/04/18 03:15:31;;;;;;;1.30;1.10;;;;;;;;;;4964532;28;20677;-43
2023/04/18 03:17:57;;;;;;;2.50;1.13;;;;;;;;;;4966876;28;20039;-41
2023/04/18 03:20:23;;;;;;;1.25;1.15;;;;;;;;;;4960820;28;20074;-43
2023/04/18 03:22:48;;;;;;;1.73;1.63;;;;;;;;;;4965206;28;20034;-46
2023/04/18 03:25:14;;;;;;;1.35;1.25;;;;;;;;;;4964507;28;20440;-40
2023/04/18 03:27:39;;;;;;;1.40;1.30;;;;;;;;;;4965583;28;20035;-44
2023/04/18 03:30:06;;;;;;;1.15;1.10;;;;;;;;;;4962437;28;20118;-44
2023/04/18 03:32:32;;;;;;;1.10;1.08;;;;;;;;;;4967475;28;20030;-47
2023/04/18 03:34:58;;;;;;;1.27;1.05;;;;;;;;;;4967897;28;20034;-46
2023/04/18 03:37:23;;;;;;;1.42;1.27;;;;;;;;;;4967734;28;20049;-47
2023/04/18 03:39:49;;;;;;;1.40;1.30;;;;;;;;;;4965941;28;20364;-47
2023/04/18 03:42:14;;;;;;;5.68;1.30;;;;;;;;;;4968696;28;20038;-40
2023/04/18 03:44:39;;;;;;;1.40;0.95;;;;;;;;;;4965149;28;20030;-44
2023/04/18 03:47:05;;;;;;;0.88;0.88;;;;;;;;;;4966703;28;20139;-44
2023/04/18 03:49:30;;;;;;;1.40;1.30;;;;;;;;;;4967103;28;20035;-42
2023/04/18 03:51:55;;;;;;;1.13;1.10;;;;;;;;;;4962967;28;20117;-43
2023/04/18 03:54:21;;;;;;;1.10;1.10;;;;;;;;;;4965640;28;20039;-47
2023/04/18 03:56:46;;;;;;;1.38;1.30;;;;;;;;;;4963276;28;20039;-41
2023/04/18 03:59:12;;;;;;;0.93;0.93;;;;;;;;;;4963693;28;20431;-45
2023/04/18 04:01:37;;;;;;;1.10;1.10;;;;;;;;;;4962982;28;20039;-44
2023/04/18 04:04:03;;;;;;;0.90;0.90;;;;;;;;;;4967926;28;20038;-44
2023/04/18 04:06:30;;;;;;;1.90;1.30;;;;;;;;;;4962635;28;20105;-47
2023/04/18 04:08:55;;;;;;;1.52;1.40;;;;;;;;;;4960067;28;20081;-44
2023/04/18 04:11:21;;;;;;;1.30;1.20;;;;;;;;;;4966668;28;20078;-46
2023/04/18 04:13:46;;;;;;;1.20;1.10;;;;;;;;;;4966162;28;20057;-44
2023/04/18 04:16:12;;;;;;;2.22;1.23;;;;;;;;;;4966058;28;20042;-43
2023/04/18 04:18:37;;;;;;;1.05;1.05;;;;;;;;;;4964946;28;20061;-43
2023/04/18 04:21:04;;;;;;;4.68;1.10;;;;;;;;;;4966153;28;20053;-41
2023/04/18 04:23:30;;;;;;;1.63;1.38;;;;;;;;;;4964710;28;20035;-42
2023/04/18 04:25:55;;;;;;;1.20;1.10;;;;;;;;;;4964046;28;20078;-49
2023/04/18 04:28:21;;;;;;;2.88;1.17;;;;;;;;;;4967648;28;20019;-41
2023/04/18 04:30:50;;;;;;;0.98;0.98;;;;;;;;;;4965881;28;20550;-44
2023/04/18 04:33:19;;;;;;;1.40;1.30;;;;;;;;;;4968255;28;20041;-40
2023/04/18 04:35:46;;;;;;;1.30;1.25;;;;;;;;;;4964534;28;20537;-41
2023/04/18 04:38:14;;;;;;;1.88;1.23;;;;;;;;;;4967417;28;20702;-47
2023/04/18 04:40:40;;;;;;;1.00;1.00;;;;;;;;;;4968306;28;20043;-44
2023/04/18 04:43:06;;;;;;;2.05;1.10;;;;;;;;;;4969154;28;20784;-41
2023/04/18 04:45:32;;;;;;;2.35;1.10;;;;;;;;;;4970329;28;20038;-43
2023/04/18 04:47:58;;;;;;;1.02;1.02;;;;;;;;;;4964055;28;20038;-41
2023/04/18 04:50:23;;;;;;;1.20;1.20;;;;;;;;;;4968659;28;20031;-41
2023/04/18 04:52:49;;;;;;;1.20;1.00;;;;;;;;;;4968610;28;20029;-44
2023/04/18 04:55:14;;;;;;;1.35;1.23;;;;;;;;;;4968409;28;20054;-41
2023/04/18 04:57:40;;;;;;;1.50;1.40;;;;;;;;;;4970698;28;20125;-45
2023/04/18 05:00:07;;;;;;;1.92;1.50;;;;;;;;;;4968037;28;20034;-41
2023/04/18 05:02:32;;;;;;;1.17;1.10;;;;;;;;;;4971289;28;20058;-46
2023/04/18 05:04:58;;;;;;;2.42;2.22;;;;;;;;;;4970727;28;20506;-42
2023/04/18 05:07:23;;;;;;;1.30;1.20;;;;;;;;;;4967269;28;20046;-48
2023/04/18 05:09:51;;;;;;;1.30;1.20;;;;;;;;;;4967861;28;20034;-41
2023/04/18 05:12:17;;;;;;;1.50;1.38;;;;;;;;;;4966960;28;20058;-46
2023/04/18 05:14:42;;;;;;;2.60;2.40;;;;;;;;;;4968472;28;20046;-47
2023/04/18 05:17:08;;;;;;;5.35;1.70;;;;;;;;;;4965008;28;20058;-44
2023/04/18 05:19:33;;;;;;;6.72;1.55;;;;;;;;;;4965933;28;20373;-47
2023/04/18 05:21:59;;;;;;;1.00;1.00;;;;;;;;;;4968463;28;20039;-44
2023/04/18 05:24:24;;;;;;;2.55;1.10;;;;;;;;;;4969667;28;20105;-44
2023/04/18 05:26:50;;;;;;;1.00;1.00;;;;;;;;;;4968687;28;20039;-41
2023/04/18 05:29:15;;;;;;;1.38;1.27;;;;;;;;;;4967668;28;20058;-47
2023/04/18 05:31:41;;;;;;;5.35;1.13;;;;;;;;;;4967333;28;20051;-41
2023/04/18 05:34:06;;;;;;;1.58;1.30;;;;;;;;;;4964990;28;20026;-43
2023/04/18 05:36:31;;;;;;;2.53;1.10;;;;;;;;;;4968474;28;20079;-42
2023/04/18 05:38:57;;;;;;;1.13;1.00;;;;;;;;;;4965910;28;20535;-47
2023/04/18 05:41:22;;;;;;;1.40;0.93;;;;;;;;;;4961133;28;20067;-44
2023/04/18 05:43:47;;;;;;;1.00;1.00;;;;;;;;;;4969401;28;20035;-48
2023/04/18 05:46:13;;;;;;;0.98;0.93;;;;;;;;;;4969508;28;20118;-44
2023/04/18 05:48:38;;;;;;;1.10;1.00;;;;;;;;;;4968241;28;20019;-42
2023/04/18 05:51:04;;;;;;;2.22;1.00;;;;;;;;;;4968834;28;20038;-41
2023/04/18 05:53:30;;;;;;;1.10;1.00;;;;;;;;;;4966300;28;20031;-43
2023/04/18 05:55:56;;;;;;;1.17;0.90;;;;;;;;;;4966276;28;20090;-42
2023/04/18 05:58:21;;;;;;;1.00;1.00;;;;;;;;;;4963277;28;20069;-42
2023/04/18 06:00:47;;;;;;;0.80;0.75;;;;;;;;;;4964803;28;20073;-45
2023/04/18 06:03:12;;;;;;;0.98;0.98;;;;;;;;;;4968423;28;20365;-41
2023/04/18 06:05:39;;;;;;;1.13;1.05;;;;;;;;;;4964881;28;20066;-41
2023/04/18 06:08:06;;;;;;;1.27;0.98;;;;;;;;;;4965202;28;20034;-43
2023/04/18 06:10:31;;;;;;;1.00;0.90;;;;;;;;;;4968440;28;20070;-41
2023/04/18 06:12:57;;;;;;;1.17;1.00;;;;;;;;;;4963077;28;20101;-41
2023/04/18 06:15:22;;;;;;;0.93;0.93;;;;;;;;;;4966660;28;20018;-44
2023/04/18 06:17:48;;;;;;;4.13;1.00;;;;;;;;;;4969342;28;20031;-42
2023/04/18 06:20:13;;;;;;;1.17;1.17;;;;;;;;;;4964627;28;20035;-45
2023/04/18 06:22:38;;;;;;;2.50;1.05;;;;;;;;;;4965722;28;20035;-44
2023/04/18 06:25:04;;;;;;;0.75;0.75;;;;;;;;;;4966088;28;20379;-44
2023/04/18 06:27:30;;;;;;;1.20;1.10;;;;;;;;;;4964308;28;20051;-41
2023/04/18 06:29:55;;;;;;;1.15;1.08;;;;;;;;;;4968798;28;20027;-41
2023/04/18 06:32:20;;;;;;;2.05;1.70;;;;;;;;;;4965445;28;20031;-40
2023/04/18 06:34:46;;;;;;;5.95;3.40;;;;;;;;;;4967323;28;20022;-41
2023/04/18 06:37:11;;;;;;;2.75;2.50;;;;;;;;;;4966444;28;20054;-41
2023/04/18 06:39:36;;;;;;;1.75;1.65;;;;;;;;;;4962375;28;20082;-41
2023/04/18 06:42:03;;;;;;;3.67;1.10;;;;;;;;;;4962485;28;20495;-41
2023/04/18 06:44:30;;;;;;;1.02;1.02;;;;;;;;;;4966496;28;20034;-44
2023/04/18 06:46:56;;;;;;;2.10;0.90;;;;;;;;;;4967437;28;20038;-44
2023/04/18 06:49:21;;;;;;;1.55;1.20;;;;;;;;;;4970674;28;20392;-44
2023/04/18 06:51:47;;;;;;;0.85;0.85;;;;;;;;;;4966649;28;20046;-42
2023/04/18 06:54:12;;;;;;;3.58;1.05;;;;;;;;;;4968492;28;20117;-43
2023/04/18 06:56:38;;;;;;;1.40;1.30;;;;;;;;;;4952857;28;20035;-40
2023/04/18 06:59:03;;;;;;;2.58;0.90;;;;;;;;;;4948672;28;20868;-41
2023/04/18 07:01:33;;;;;;;0.85;0.85;;;;;;;;;;4961942;28;20038;-41
2023/04/18 07:03:58;;;;;;;1.35;1.00;;;;;;;;;;4961623;28;20149;-40
2023/04/18 07:06:25;;;;;;;5.90;1.05;;;;;;;;;;4962968;28;20093;-44
2023/04/18 07:08:50;;;;;;;1.40;0.88;;;;;;;;;;4966782;28;20038;-48
2023/04/18 07:11:17;;;;;;;2.60;0.80;;;;;;;;;;4965944;28;20049;-41
2023/04/18 07:13:44;;;;;;;3.35;0.93;;;;;;;;;;4968964;28;20553;-41
2023/04/18 07:16:09;;;;;;;1.05;0.98;;;;;;;;;;4961466;28;20138;-42
2023/04/18 07:18:35;;;;;;;0.70;0.70;;;;;;;;;;4964801;28;20110;-43
2023/04/18 07:21:00;;;;;;;1.73;0.98;;;;;;;;;;4966283;28;20038;-43
2023/04/18 07:23:26;;;;;;;2.67;0.80;;;;;;;;;;4963693;28;20568;-41
2023/04/18 07:25:51;;;;;;;0.80;0.80;;;;;;;;;;4963095;28;20042;-43
2023/04/18 07:28:17;;;;;;;0.90;0.90;;;;;;;;;;4966813;28;20121;-41
2023/04/18 07:30:42;;;;;;;1.52;1.10;;;;;;;;;;4965553;28;21846;-45
2023/04/18 07:33:07;;;;;;;1.20;0.95;;;;;;;;;;4969069;28;20026;-42
2023/04/18 07:35:34;;;;;;;2.42;0.90;;;;;;;;;;4965100;28;20101;-42
2023/04/18 07:38:00;;;;;;;0.85;0.80;;;;;;;;;;4967340;28;20041;-41
2023/04/18 07:40:25;;;;;;;1.90;0.80;;;;;;;;;;4964247;28;20047;-41
2023/04/18 07:42:52;;;;;;;2.80;0.90;;;;;;;;;;4960560;28;20126;-41
2023/04/18 07:45:18;;;;;;;0.77;0.77;;;;;;;;;;4964537;28;20027;-44
2023/04/18 07:47:43;;;;;;;1.40;0.93;;;;;;;;;;4963985;28;20499;-41
2023/04/18 07:50:09;;;;;;;1.10;1.05;;;;;;;;;;4962421;28;20472;-42
2023/04/18 07:52:34;;;;;;;1.05;0.70;;;;;;;;;;4959167;28;20023;-42
2023/04/18 07:55:00;;;;;;;0.88;0.88;;;;;;;;;;4962195;28;20473;-41
2023/04/18 07:57:25;;;;;;;5.72;0.90;;;;;;;;;;4963202;28;20074;-45
2023/04/18 07:59:52;;;;;;;0.70;0.70;;;;;;;;;;4967050;28;20041;-45
2023/04/18 08:02:19;;;;;;;2.75;0.90;;;;;;;;;;4965229;28;20138;-41
2023/04/18 08:04:45;;;;;;;1.08;0.80;;;;;;;;;;4970137;28;20027;-44
2023/04/18 08:07:11;;;;;;;1.85;0.80;;;;;;;;;;4969632;28;20404;-41
2023/04/18 08:09:36;;;;;;;0.85;0.85;;;;;;;;;;4970256;28;20035;-42
2023/04/18 08:12:02;;;;;;;0.85;0.85;;;;;;;;;;4971543;28;20031;-42
2023/04/18 08:14:27;;;;;;;0.88;0.88;;;;;;;;;;4967584;28;20035;-44
2023/04/18 08:16:52;;;;;;;1.45;0.95;;;;;;;;;;4970276;28;20043;-42
2023/04/18 08:19:18;;;;;;;1.77;1.38;;;;;;;;;;4967151;28;20451;-41
2023/04/18 08:21:43;;;;;;;1.98;0.95;;;;;;;;;;4970623;28;20051;-46
2023/04/18 08:24:09;;;;;;;2.38;1.00;;;;;;;;;;4967347;28;20483;-45
2023/04/18 08:26:34;;;;;;;2.45;1.00;;;;;;;;;;4971149;28;20093;-42
2023/04/18 08:28:59;;;;;;;3.15;1.15;;;;;;;;;;4969133;28;20046;-42
2023/04/18 08:31:26;;;;;;;2.35;0.82;;;;;;;;;;4965541;28;20432;-43
2023/04/18 08:33:51;;;;;;;0.95;0.85;;;;;;;;;;4970173;28;20038;-42
2023/04/18 08:36:17;;;;;;;1.65;1.25;;;;;;;;;;4963907;28;20031;-41
2023/04/18 08:38:42;;;;;;;4.68;1.10;;;;;;;;;;4969278;28;20042;-42
2023/04/18 08:41:08;;;;;;;1.63;1.27;;;;;;;;;;4965526;28;20377;-41
2023/04/18 08:43:33;;;;;;;1.73;1.17;;;;;;;;;;4965679;28;20073;-41
2023/04/18 08:45:59;;;;;;;2.95;1.30;;;;;;;;;;4970126;28;20035;-42
2023/04/18 08:48:28;;;;;;;2.50;1.48;;;;;;;;;;4965171;28;20490;-47
2023/04/18 08:50:58;;;;;;;1.40;1.30;;;;;;;;;;4967570;28;20444;-45
2023/04/18 08:53:25;;;;;;;3.33;1.15;;;;;;;;;;4966115;28;20038;-43
2023/04/18 08:55:55;;;;;;;1.50;1.08;;;;;;;;;;4966463;28;20527;-41
2023/04/18 08:58:26;;;;;;;1.30;1.05;;;;;;;;;;4963297;28;20037;-44
2023/04/18 09:00:52;;;;;;;1.73;1.10;;;;;;;;;;4969997;28;20054;-45
2023/04/18 09:03:39;;;;;;;1.08;0.82;;;;;;;;;;4967093;28;20519;-43
2023/04/18 09:06:11;;;;;;;5.13;1.00;;;;;;;;;;4967610;28;20051;-43
2023/04/18 09:08:37;;;;;;;2.05;0.85;;;;;;;;;;4967854;28;20077;-47
2023/04/18 09:11:24;;;;;;;3.85;1.02;;;;;;;;;;4968888;28;20042;-45
2023/04/18 09:13:51;;;;;;;5.18;0.90;;;;;;;;;;4966669;28;20034;-49
2023/04/18 09:16:21;;;;;;;3.80;1.33;;;;;;;;;;4965288;28;20471;-45
2023/04/18 09:19:10;;;;;;;1.42;0.80;;;;;;;;;;4968213;28;20450;-45
2023/04/18 09:21:38;;;;;;;1.05;1.00;;;;;;;;;;4965964;28;20039;-47
2023/04/18 09:24:25;;;;;;;3.35;1.08;;;;;;;;;;4963428;28;20118;-42
2023/04/18 09:26:55;;;;;;;4.30;1.08;;;;;;;;;;4967362;28;20642;-48
2023/04/18 09:29:39;;;;;;;2.60;1.02;;;;;;;;;;4969141;28;20035;-45
2023/04/18 09:32:05;;;;;;;1.00;0.90;;;;;;;;;;4964785;28;20085;-43
2023/04/18 09:34:32;;;;;;;1.73;0.80;;;;;;;;;;4968232;28;20031;-49
2023/04/18 09:37:06;;;;;;;1.75;0.90;;;;;;;;;;4968730;28;20043;-48
2023/04/18 09:39:32;;;;;;;1.02;0.93;;;;;;;;;;4964913;28;20039;-47
2023/04/18 09:41:58;;;;;;;4.32;1.10;;;;;;;;;;4961092;28;20039;-43
2023/04/18 09:44:23;;;;;;;2.67;1.30;;;;;;;;;;4968025;28;20106;-42
2023/04/18 09:46:48;;;;;;;4.75;1.17;;;;;;;;;;4967136;28;20134;-43
2023/04/18 09:49:15;;;;;;;2.10;0.80;;;;;;;;;;4965884;28;20037;-43
2023/04/18 09:51:41;;;;;;;3.60;1.13;;;;;;;;;;4968700;28;20039;-44
2023/04/18 09:54:09;;;;;;;5.60;1.10;;;;;;;;;;4967067;28;20037;-43
2023/04/18 09:56:37;;;;;;;2.85;1.10;;;;;;;;;;4968846;28;20038;-44
2023/04/18 09:59:07;;;;;;;2.13;0.88;;;;;;;;;;4960578;28;20062;-49
2023/04/18 10:01:34;;;;;;;2.65;1.15;;;;;;;;;;4963626;28;20076;-48
2023/04/18 10:04:02;;;;;;;4.80;1.15;;;;;;;;;;4966029;28;20074;-49
2023/04/18 10:06:28;;;;;;;3.60;1.23;;;;;;;;;;4967457;28;20399;-48
2023/04/18 10:08:55;;;;;;;5.43;1.60;;;;;;;;;;4962558;28;20039;-48
2023/04/18 10:11:21;;;;;;;2.63;1.15;;;;;;;;;;4965340;28;20062;-52
2023/04/18 10:13:47;;;;;;;5.10;1.67;;;;;;;;;;4966549;28;20030;-42
2023/04/18 10:16:13;;;;;;;2.72;1.40;;;;;;;;;;4963459;28;20051;-42
2023/04/18 10:18:39;;;;;;;5.32;1.50;;;;;;;;;;4966461;28;20542;-45
2023/04/18 10:21:04;;;;;;;2.08;1.65;;;;;;;;;;4963987;28;20507;-42
2023/04/18 10:23:30;;;;;;;4.97;1.00;;;;;;;;;;4965068;28;20109;-47
2023/04/18 10:25:56;;;;;;;1.92;1.58;;;;;;;;;;4962920;28;20038;-45
2023/04/18 10:28:23;;;;;;;3.65;1.23;;;;;;;;;;4968818;28;20030;-45
2023/04/18 10:30:51;;;;;;;1.92;1.52;;;;;;;;;;4967933;28;20093;-44
2023/04/18 10:33:34;;;;;;;5.03;0.98;;;;;;;;;;4966749;28;20578;-51
2023/04/18 10:36:08;;;;;;;2.58;1.10;;;;;;;;;;4960182;28;20634;-43
2023/04/18 10:38:43;;;;;;;2.70;1.27;;;;;;;;;;4963394;28;20039;-47
2023/04/18 10:41:22;;;;;;;0.90;0.90;;;;;;;;;;4967411;28;20034;-45
2023/04/18 10:44:05;;;;;;;2.47;1.48;;;;;;;;;;4965257;28;20022;-45
2023/04/18 10:46:34;;;;;;;0.98;0.98;;;;;;;;;;4963013;28;20122;-49
2023/04/18 10:49:22;;;;;;;1.83;1.30;;;;;;;;;;4969129;28;20138;-48
2023/04/18 10:51:53;;;;;;;1.83;1.13;;;;;;;;;;4963809;28;20072;-45
2023/04/18 10:54:49;;;;;;;2.92;1.17;;;;;;;;;;4968195;28;20031;-48
2023/04/18 10:57:15;;;;;;;1.25;1.15;;;;;;;;;;4951128;28;20122;-43
2023/04/18 10:59:42;;;;;;;3.38;1.50;;;;;;;;;;4951168;28;20118;-44
2023/04/18 11:02:24;;;;;;;1.88;1.30;;;;;;;;;;4952020;28;20049;-44
2023/04/18 11:04:54;;;;;;;4.15;1.30;;;;;;;;;;4952576;28;20022;-43
2023/04/18 11:07:41;;;;;;;1.75;1.00;;;;;;;;;;4959912;28;20573;-42
2023/04/18 11:10:08;;;;;;;4.68;1.80;;;;;;;;;;4972599;28;20053;-44
2023/04/18 11:12:38;;;;;;;2.05;1.30;;;;;;;;;;4962481;28;20547;-43
2023/04/18 11:15:13;;;;;;;1.88;1.38;;;;;;;;;;4964698;28;20089;-42
2023/04/18 11:17:40;;;;;;;11.65;1.48;;;;;;;;;;4966435;28;20093;-43
2023/04/18 11:20:13;;;;;;;4.10;1.40;;;;;;;;;;4966670;28;20113;-44
2023/04/18 11:22:59;;;;;;;4.05;1.10;;;;;;;;;;4965916;28;20058;-43
2023/04/18 11:25:29;;;;;;;1.23;0.90;;;;;;;;;;4964020;28;20041;-44
2023/04/18 11:27:58;;;;;;;2.13;1.25;;;;;;;;;;4963174;28;20027;-42
2023/04/18 11:30:24;;;;;;;0.98;0.88;;;;;;;;;;4964831;28;20035;-43
2023/04/18 11:32:50;;;;;;;4.50;1.25;;;;;;;;;;4964265;28;20030;-43
2023/04/18 11:35:16;;;;;;;1.13;1.00;;;;;;;;;;4967090;28;20026;-42
2023/04/18 11:37:44;;;;;;;1.30;1.00;;;;;;;;;;4964683;28;20094;-42
2023/04/18 11:40:11;;;;;;;2.13;1.45;;;;;;;;;;4964923;28;20472;-43
2023/04/18 11:42:38;;;;;;;5.57;1.00;;;;;;;;;;4970218;28;20034;-43
2023/04/18 11:45:09;;;;;;;2.17;1.23;;;;;;;;;;4963032;28;20121;-43
2023/04/18 11:47:35;;;;;;;3.72;1.15;;;;;;;;;;4963292;28;20101;-42
2023/04/18 11:50:06;;;;;;;2.53;1.10;;;;;;;;;;4967565;28;20058;-42
2023/04/18 11:52:33;;;;;;;1.52;0.90;;;;;;;;;;4964367;28;20051;-42
2023/04/18 11:55:18;;;;;;;6.10;1.55;;;;;;;;;;4964216;28;20451;-43
2023/04/18 11:57:54;;;;;;;3.30;1.40;;;;;;;;;;4965621;28;20121;-42
2023/04/18 12:00:33;;;;;;;2.03;1.20;;;;;;;;;;4958855;28;20042;-42
2023/04/18 12:03:00;;;;;;;1.75;1.00;;;;;;;;;;4966939;28;20093;-42
2023/04/18 12:05:36;;;;;;;2.53;0.90;;;;;;;;;;4961654;28;20101;-45
2023/04/18 12:08:10;;;;;;;1.10;1.00;;;;;;;;;;4962040;28;20110;-49
2023/04/18 12:10:37;;;;;;;8.45;1.45;;;;;;;;;;4962923;28;20043;-44
2023/04/18 12:13:06;;;;;;;2.55;1.45;;;;;;;;;;4966274;28;20117;-43
2023/04/18 12:15:32;;;;;;;4.60;1.00;;;;;;;;;;4961845;28;20130;-45
2023/04/18 12:18:03;;;;;;;1.05;1.00;;;;;;;;;;4966840;28;20440;-43
2023/04/18 12:20:57;;;;;;;1.25;0.88;;;;;;;;;;4963916;28;20699;-44
2023/04/18 12:23:38;;;;;;;0.85;0.85;;;;;;;;;;4965585;28;20041;-47
2023/04/18 12:26:11;;;;;;;10.13;1.90;;;;;;;;;;4962306;28;20054;-43
2023/04/18 12:28:36;;;;;;;1.25;1.15;;;;;;;;;;4966137;28;20121;-49
2023/04/18 12:31:05;;;;;;;3.17;1.08;;;;;;;;;;4961602;28;20131;-48
2023/04/18 12:33:31;;;;;;;1.40;1.30;;;;;;;;;;4965421;28;20062;-46
2023/04/18 12:35:58;;;;;;;4.85;1.83;;;;;;;;;;4962795;28;20077;-43
2023/04/18 12:38:23;;;;;;;3.65;1.10;;;;;;;;;;4964074;28;20066;-42
2023/04/18 12:40:50;;;;;;;4.10;1.33;;;;;;;;;;4966738;28;20551;-45
2023/04/18 12:43:16;;;;;;;4.53;1.60;;;;;;;;;;4968503;28;20022;-45
2023/04/18 12:45:42;;;;;;;2.25;1.40;;;;;;;;;;4963108;28;20042;-50
2023/04/18 12:48:07;;;;;;;1.45;1.35;;;;;;;;;;4967399;28;20494;-46
2023/04/18 12:50:33;;;;;;;1.65;1.20;;;;;;;;;;4969040;28;20499;-45
2023/04/18 12:53:00;;;;;;;2.00;1.13;;;;;;;;;;4968991;28;20043;-48
2023/04/18 12:55:26;;;;;;;1.48;1.30;;;;;;;;;;4962043;28;20048;-45
2023/04/18 12:57:53;;;;;;;2.28;1.08;;;;;;;;;;4951823;28;20035;-42
2023/04/18 13:00:22;;;;;;;2.30;1.25;;;;;;;;;;4953081;28;20039;-44
2023/04/18 13:02:48;;;;;;;3.40;1.20;;;;;;;;;;4951489;28;20059;-42
2023/04/18 13:05:15;;;;;;;2.53;1.40;;;;;;;;;;4951901;28;20090;-47
2023/04/18 13:07:41;;;;;;;14.45;1.70;;;;;;;;;;4951930;28;20035;-48
2023/04/18 13:10:09;;;;;;;2.35;1.23;;;;;;;;;;4951470;28;20035;-42
2023/04/18 13:12:35;;;;;;;5.60;1.23;;;;;;;;;;4968675;28;20045;-49
2023/04/18 13:15:00;;;;;;;3.83;1.30;;;;;;;;;;4966388;28;20416;-42
2023/04/18 13:17:25;;;;;;;5.53;1.40;;;;;;;;;;4965993;28;20503;-45
2023/04/18 13:19:51;;;;;;;1.40;1.15;;;;;;;;;;4968719;28;20110;-42
2023/04/18 13:22:20;;;;;;;1.40;1.20;;;;;;;;;;4967979;28;20039;-51
2023/04/18 13:24:45;;;;;;;1.00;1.00;;;;;;;;;;4966208;28;20046;-44
2023/04/18 13:27:12;;;;;;;4.20;1.13;;;;;;;;;;4968271;28;20069;-47
2023/04/18 13:29:40;;;;;;;2.83;1.17;;;;;;;;;;4967162;28;20023;-46
2023/04/18 13:32:05;;;;;;;6.30;1.10;;;;;;;;;;4968299;28;20088;-48
2023/04/18 13:34:33;;;;;;;3.25;1.58;;;;;;;;;;4968452;28;20431;-44
2023/04/18 13:36:58;;;;;;;2.75;1.10;;;;;;;;;;4965840;28;20079;-46
2023/04/18 13:39:24;;;;;;;3.95;1.05;;;;;;;;;;4968190;28;20058;-44
2023/04/18 13:41:50;;;;;;;2.05;1.52;;;;;;;;;;4965527;28;20046;-42
2023/04/18 13:44:15;;;;;;;1.13;1.00;;;;;;;;;;4967938;28;20031;-43
2023/04/18 13:46:40;;;;;;;5.18;0.80;;;;;;;;;;4966558;28;20197;-47
2023/04/18 13:49:06;;;;;;;2.40;0.80;;;;;;;;;;4965356;28;20370;-44
2023/04/18 13:51:32;;;;;;;1.50;0.90;;;;;;;;;;4966004;28;20031;-48
2023/04/18 13:53:59;;;;;;;3.67;0.80;;;;;;;;;;4967456;28;20033;-43
2023/04/18 13:56:25;;;;;;;3.60;0.80;;;;;;;;;;4964921;28;20097;-46
2023/04/18 13:58:51;;;;;;;1.48;1.10;;;;;;;;;;4967426;28;20113;-44
2023/04/18 14:01:17;;;;;;;2.05;0.90;;;;;;;;;;4965092;28;20248;-48
2023/04/18 14:03:43;;;;;;;0.73;0.70;;;;;;;;;;4966163;28;20073;-42
2023/04/18 14:06:08;;;;;;;1.75;0.93;;;;;;;;;;4965722;28;20047;-43
2023/04/18 14:08:33;;;;;;;2.92;0.90;;;;;;;;;;4969821;28;20030;-50
2023/04/18 14:10:59;;;;;;;0.80;0.80;;;;;;;;;;4969110;28;20562;-46
2023/04/18 14:13:24;;;;;;;1.17;1.08;;;;;;;;;;4962566;28;20069;-49
2023/04/18 14:15:51;;;;;;;1.70;1.00;;;;;;;;;;4964112;28;20039;-44
2023/04/18 14:18:20;;;;;;;1.27;0.90;;;;;;;;;;4967400;28;20552;-42
2023/04/18 14:20:47;;;;;;;3.08;1.02;;;;;;;;;;4967511;28;20034;-45
2023/04/18 14:23:14;;;;;;;3.53;0.98;;;;;;;;;;4963026;28;20031;-42
2023/04/18 14:25:39;;;;;;;0.95;0.93;;;;;;;;;;4966276;28;20154;-42
2023/04/18 14:28:08;;;;;;;1.52;0.80;;;;;;;;;;4963169;28;20559;-42
2023/04/18 14:30:33;;;;;;;0.82;0.70;;;;;;;;;;4966279;28;20403;-43
2023/04/18 14:32:59;;;;;;;4.18;0.90;;;;;;;;;;4963638;28;20035;-43
2023/04/18 14:35:24;;;;;;;1.65;0.80;;;;;;;;;;4961027;28;22887;-42
2023/04/18 14:37:50;;;;;;;3.22;0.80;;;;;;;;;;4968418;28;20033;-42
2023/04/18 14:40:15;;;;;;;2.65;0.80;;;;;;;;;;4967076;28;20030;-48
2023/04/18 14:42:41;;;;;;;0.70;0.70;;;;;;;;;;4967833;28;20057;-48